sensor_id;sensor_type;location;lat;lon;timestamp;pressure;altitude;pressure_sealevel;temperature;humidity
59190;BME280;50749;51.636;4.948;2023-07-20T00:01:16;101483.50;;;22.62;52.19
59190;BME280;50749;51.636;4.948;2023-07-20T00:03:41;101471.94;;;22.60;52.19
59190;BME280;50749;51.636;4.948;2023-07-20T00:06:07;101478.31;;;22.61;52.25
59190;BME280;50749;51.636;4.948;2023-07-20T00:08:33;101484.72;;;22.61;51.94
59190;BME280;50749;51.636;4.948;2023-07-20T00:10:59;101489.84;;;22.59;51.98
59190;BME280;50749;51.636;4.948;2023-07-20T00:13:24;101483.47;;;22.59;52.25
59190;BME280;50749;51.636;4.948;2023-07-20T00:15:51;101483.47;;;22.59;52.02
59190;BME280;50749;51.636;4.948;2023-07-20T00:18:17;101488.59;;;22.57;52.04
59190;BME280;50749;51.636;4.948;2023-07-20T00:20:47;101488.59;;;22.57;52.41
59190;BME280;50749;51.636;4.948;2023-07-20T00:23:13;101488.19;;;22.55;52.24
59190;BME280;50749;51.636;4.948;2023-07-20T00:25:39;101488.97;;;22.55;52.12
59190;BME280;50749;51.636;4.948;2023-07-20T00:28:04;101487.81;;;22.56;52.35
59190;BME280;50749;51.636;4.948;2023-07-20T00:30:30;101483.84;;;22.57;52.28
59190;BME280;50749;51.636;4.948;2023-07-20T00:32:56;101485.03;;;22.56;52.14
59190;BME280;50749;51.636;4.948;2023-07-20T00:35:21;101485.03;;;22.56;52.24
59190;BME280;50749;51.636;4.948;2023-07-20T00:37:47;101493.38;;;22.56;51.74
59190;BME280;50749;51.636;4.948;2023-07-20T00:40:13;101481.03;;;22.57;52.27
59190;BME280;50749;51.636;4.948;2023-07-20T00:42:39;101487.81;;;22.56;51.93
59190;BME280;50749;51.636;4.948;2023-07-20T00:45:05;101485.03;;;22.56;52.24
59190;BME280;50749;51.636;4.948;2023-07-20T00:47:32;101486.19;;;22.55;51.92
59190;BME280;50749;51.636;4.948;2023-07-20T00:49:58;101486.19;;;22.55;52.37
59190;BME280;50749;51.636;4.948;2023-07-20T00:52:27;101485.03;;;22.56;51.88
59190;BME280;50749;51.636;4.948;2023-07-20T00:54:54;101495.34;;;22.56;52.09
59190;BME280;50749;51.636;4.948;2023-07-20T00:57:22;101500.91;;;22.56;51.75
59190;BME280;50749;51.636;4.948;2023-07-20T00:59:49;101494.56;;;22.55;51.81
59190;BME280;50749;51.636;4.948;2023-07-20T01:02:15;101494.56;;;22.55;51.73
59190;BME280;50749;51.636;4.948;2023-07-20T01:04:41;101501.75;;;22.56;51.66
59190;BME280;50749;51.636;4.948;2023-07-20T01:07:32;101500.13;;;22.55;52.05
59190;BME280;50749;51.636;4.948;2023-07-20T01:10:33;101502.91;;;22.55;51.80
59190;BME280;50749;51.636;4.948;2023-07-20T01:13:01;101504.06;;;22.54;51.85
59190;BME280;50749;51.636;4.948;2023-07-20T01:15:30;101503.28;;;22.54;51.85
59190;BME280;50749;51.636;4.948;2023-07-20T01:17:55;101506.44;;;22.52;51.86
59190;BME280;50749;51.636;4.948;2023-07-20T01:20:21;101504.47;;;22.53;51.72
59190;BME280;50749;51.636;4.948;2023-07-20T01:33:52;101506.38;;;22.49;52.21
59190;BME280;50749;51.636;4.948;2023-07-20T01:36:19;101509.53;;;22.47;52.27
59190;BME280;50749;51.636;4.948;2023-07-20T01:38:48;101505.97;;;22.47;52.01
59190;BME280;50749;51.636;4.948;2023-07-20T01:41:15;101506.34;;;22.45;52.26
59190;BME280;50749;51.636;4.948;2023-07-20T01:43:40;101505.53;;;22.44;52.05
59190;BME280;50749;51.636;4.948;2023-07-20T01:46:06;101507.50;;;22.44;52.03
59190;BME280;50749;51.636;4.948;2023-07-20T01:48:32;101519.84;;;22.43;52.07
59190;BME280;50749;51.636;4.948;2023-07-20T01:50:58;101517.44;;;22.41;51.99
59190;BME280;50749;51.636;4.948;2023-07-20T01:53:23;101521.00;;;22.42;52.40
59190;BME280;50749;51.636;4.948;2023-07-20T01:55:52;101522.19;;;22.41;52.40
59190;BME280;50749;51.636;4.948;2023-07-20T01:58:18;101518.97;;;22.39;52.04
59190;BME280;50749;51.636;4.948;2023-07-20T02:00:44;101526.94;;;22.40;52.33
59190;BME280;50749;51.636;4.948;2023-07-20T02:03:10;101514.22;;;22.39;52.35
59190;BME280;50749;51.636;4.948;2023-07-20T02:05:38;101526.53;;;22.38;51.95
59190;BME280;50749;51.636;4.948;2023-07-20T02:08:03;101530.09;;;22.39;52.07
59190;BME280;50749;51.636;4.948;2023-07-20T02:10:29;101528.50;;;22.38;51.96
59190;BME280;50749;51.636;4.948;2023-07-20T02:12:55;101530.84;;;22.36;52.02
59190;BME280;50749;51.636;4.948;2023-07-20T02:15:21;101530.84;;;22.36;52.29
59190;BME280;50749;51.636;4.948;2023-07-20T02:17:47;101527.63;;;22.34;52.31
59190;BME280;50749;51.636;4.948;2023-07-20T02:20:13;101530.84;;;22.36;52.32
59190;BME280;50749;51.636;4.948;2023-07-20T02:22:39;101530.84;;;22.36;51.94
59190;BME280;50749;51.636;4.948;2023-07-20T02:25:06;101533.63;;;22.36;52.11
59190;BME280;50749;51.636;4.948;2023-07-20T02:27:36;101539.19;;;22.36;51.94
59190;BME280;50749;51.636;4.948;2023-07-20T02:30:02;101538.03;;;22.37;52.14
59190;BME280;50749;51.636;4.948;2023-07-20T02:32:29;101535.63;;;22.35;52.17
59190;BME280;50749;51.636;4.948;2023-07-20T02:34:55;101525.66;;;22.34;52.22
59190;BME280;50749;51.636;4.948;2023-07-20T02:37:21;101531.25;;;22.34;51.95
59190;BME280;50749;51.636;4.948;2023-07-20T02:39:47;101541.56;;;22.34;51.91
59190;BME280;50749;51.636;4.948;2023-07-20T02:42:12;101536.00;;;22.34;51.89
59190;BME280;50749;51.636;4.948;2023-07-20T02:44:38;101534.41;;;22.33;51.98
59190;BME280;50749;51.636;4.948;2023-07-20T02:47:04;101534.81;;;22.35;52.28
59190;BME280;50749;51.636;4.948;2023-07-20T02:49:31;101534.03;;;22.34;51.88
59190;BME280;50749;51.636;4.948;2023-07-20T02:51:57;101535.63;;;22.35;52.32
59190;BME280;50749;51.636;4.948;2023-07-20T02:54:23;101534.81;;;22.35;52.23
59190;BME280;50749;51.636;4.948;2023-07-20T02:56:49;101548.38;;;22.36;51.70
59190;BME280;50749;51.636;4.948;2023-07-20T02:59:15;101554.75;;;22.37;52.02
59190;BME280;50749;51.636;4.948;2023-07-20T03:01:40;101556.75;;;22.36;51.86
59190;BME280;50749;51.636;4.948;2023-07-20T03:04:09;101553.94;;;22.36;51.68
59190;BME280;50749;51.636;4.948;2023-07-20T03:06:38;101563.91;;;22.37;52.03
59190;BME280;50749;51.636;4.948;2023-07-20T03:09:04;101567.50;;;22.38;51.88
59190;BME280;50749;51.636;4.948;2023-07-20T03:11:30;101566.69;;;22.37;51.69
59190;BME280;50749;51.636;4.948;2023-07-20T03:13:56;101569.03;;;22.35;51.71
59190;BME280;50749;51.636;4.948;2023-07-20T03:16:23;101568.25;;;22.35;51.74
59190;BME280;50749;51.636;4.948;2023-07-20T03:18:49;101571.41;;;22.33;51.67
59190;BME280;50749;51.636;4.948;2023-07-20T03:21:14;101570.97;;;22.31;52.15
59190;BME280;50749;51.636;4.948;2023-07-20T03:23:41;101574.94;;;22.30;51.95
59190;BME280;50749;51.636;4.948;2023-07-20T03:26:06;101566.56;;;22.30;52.09
59190;BME280;50749;51.636;4.948;2023-07-20T03:28:38;101573.75;;;22.31;52.04
59190;BME280;50749;51.636;4.948;2023-07-20T03:31:04;101578.50;;;22.31;51.59
59190;BME280;50749;51.636;4.948;2023-07-20T03:33:31;101566.56;;;22.30;51.60
59190;BME280;50749;51.636;4.948;2023-07-20T03:35:57;101575.72;;;22.31;51.83
59190;BME280;50749;51.636;4.948;2023-07-20T03:38:24;101582.13;;;22.31;51.70
59190;BME280;50749;51.636;4.948;2023-07-20T03:40:54;101578.50;;;22.31;51.52
59190;BME280;50749;51.636;4.948;2023-07-20T03:43:21;101581.28;;;22.31;51.83
59190;BME280;50749;51.636;4.948;2023-07-20T03:45:47;101579.69;;;22.30;51.66
59190;BME280;50749;51.636;4.948;2023-07-20T03:48:16;101575.28;;;22.29;51.92
59190;BME280;50749;51.636;4.948;2023-07-20T03:50:43;101581.19;;;22.27;51.75
59190;BME280;50749;51.636;4.948;2023-07-20T03:53:09;101578.78;;;22.25;51.88
59190;BME280;50749;51.636;4.948;2023-07-20T03:55:35;101586.78;;;22.27;51.61
59190;BME280;50749;51.636;4.948;2023-07-20T03:58:01;101583.97;;;22.27;52.01
59190;BME280;50749;51.636;4.948;2023-07-20T04:00:27;101581.19;;;22.27;51.55
59190;BME280;50749;51.636;4.948;2023-07-20T04:02:53;101576.81;;;22.26;51.75
59190;BME280;50749;51.636;4.948;2023-07-20T04:05:19;101576.47;;;22.27;51.51
59190;BME280;50749;51.636;4.948;2023-07-20T04:07:45;101578.06;;;22.29;51.54
59190;BME280;50749;51.636;4.948;2023-07-20T04:10:10;101579.34;;;22.31;51.50
59190;BME280;50749;51.636;4.948;2023-07-20T04:12:37;101576.47;;;22.27;51.72
59190;BME280;50749;51.636;4.948;2023-07-20T04:15:02;101579.97;;;22.24;52.02
59190;BME280;50749;51.636;4.948;2023-07-20T04:17:29;101575.56;;;22.23;51.99
59190;BME280;50749;51.636;4.948;2023-07-20T04:19:55;101577.19;;;22.24;52.38
59190;BME280;50749;51.636;4.948;2023-07-20T04:22:21;101579.53;;;22.22;52.62
59190;BME280;50749;51.636;4.948;2023-07-20T04:24:47;101572.78;;;22.23;52.12
59190;BME280;50749;51.636;4.948;2023-07-20T04:27:13;101581.50;;;22.22;52.68
59190;BME280;50749;51.636;4.948;2023-07-20T04:29:38;101580.72;;;22.21;52.63
59190;BME280;50749;51.636;4.948;2023-07-20T04:32:04;101573.53;;;22.20;52.38
59190;BME280;50749;51.636;4.948;2023-07-20T04:34:30;101568.31;;;22.19;52.54
59190;BME280;50749;51.636;4.948;2023-07-20T04:36:56;101567.09;;;22.16;52.38
59190;BME280;50749;51.636;4.948;2023-07-20T04:39:22;101561.53;;;22.16;52.79
59190;BME280;50749;51.636;4.948;2023-07-20T04:41:47;101572.66;;;22.16;52.78
59190;BME280;50749;51.636;4.948;2023-07-20T04:44:13;101577.88;;;22.18;52.34
59190;BME280;50749;51.636;4.948;2023-07-20T04:46:39;101578.22;;;22.16;52.41
59190;BME280;50749;51.636;4.948;2023-07-20T04:49:05;101588.19;;;22.17;52.57
59190;BME280;50749;51.636;4.948;2023-07-20T04:51:31;101582.19;;;22.15;52.60
59190;BME280;50749;51.636;4.948;2023-07-20T04:53:57;101583.00;;;22.16;52.45
59190;BME280;50749;51.636;4.948;2023-07-20T04:56:24;101584.97;;;22.15;52.78
59190;BME280;50749;51.636;4.948;2023-07-20T04:58:50;101583.00;;;22.16;52.89
59190;BME280;50749;51.636;4.948;2023-07-20T05:01:16;101585.78;;;22.16;52.98
59190;BME280;50749;51.636;4.948;2023-07-20T05:03:41;101587.38;;;22.17;52.52
59190;BME280;50749;51.636;4.948;2023-07-20T05:06:07;101591.78;;;22.18;52.78
59190;BME280;50749;51.636;4.948;2023-07-20T05:08:33;101588.19;;;22.17;52.77
59190;BME280;50749;51.636;4.948;2023-07-20T05:10:59;101592.59;;;22.18;52.90
59190;BME280;50749;51.636;4.948;2023-07-20T05:13:25;101589.06;;;22.21;52.44
59190;BME280;50749;51.636;4.948;2023-07-20T05:15:52;101586.34;;;22.25;52.30
59190;BME280;50749;51.636;4.948;2023-07-20T05:18:18;101585.53;;;22.24;52.59
59190;BME280;50749;51.636;4.948;2023-07-20T05:20:49;101597.56;;;22.29;52.64
59190;BME280;50749;51.636;4.948;2023-07-20T05:23:17;101592.00;;;22.29;52.29
59190;BME280;50749;51.636;4.948;2023-07-20T05:25:43;101598.81;;;22.31;52.42
59190;BME280;50749;51.636;4.948;2023-07-20T05:28:09;101600.69;;;22.27;52.21
59190;BME280;50749;51.636;4.948;2023-07-20T05:30:35;101597.06;;;22.23;52.34
59190;BME280;50749;51.636;4.948;2023-07-20T05:33:00;101595.81;;;22.20;52.76
59190;BME280;50749;51.636;4.948;2023-07-20T05:35:26;101604.88;;;22.17;52.47
59190;BME280;50749;51.636;4.948;2023-07-20T05:37:52;101606.31;;;22.07;52.33
59190;BME280;50749;51.636;4.948;2023-07-20T05:40:18;101612.84;;;21.96;52.96
59190;BME280;50749;51.636;4.948;2023-07-20T05:42:45;101616.50;;;21.80;52.91
59190;BME280;50749;51.636;4.948;2023-07-20T05:45:14;101608.00;;;21.73;53.00
59190;BME280;50749;51.636;4.948;2023-07-20T05:47:41;101616.13;;;21.62;53.37
59190;BME280;50749;51.636;4.948;2023-07-20T05:50:07;101605.59;;;21.52;54.12
59190;BME280;50749;51.636;4.948;2023-07-20T05:52:33;101607.81;;;21.46;53.97
59190;BME280;50749;51.636;4.948;2023-07-20T05:54:59;101603.25;;;21.38;54.43
59190;BME280;50749;51.636;4.948;2023-07-20T05:57:24;101610.38;;;21.36;53.95
59190;BME280;50749;51.636;4.948;2023-07-20T05:59:50;101601.22;;;21.35;54.14
59190;BME280;50749;51.636;4.948;2023-07-20T06:02:16;101604.00;;;21.35;54.11
59190;BME280;50749;51.636;4.948;2023-07-20T06:04:42;101600.31;;;21.31;54.29
59190;BME280;50749;51.636;4.948;2023-07-20T06:07:07;101607.50;;;21.32;54.30
59190;BME280;50749;51.636;4.948;2023-07-20T06:09:34;101607.50;;;21.32;54.10
59190;BME280;50749;51.636;4.948;2023-07-20T06:12:00;101615.38;;;21.30;54.42
59190;BME280;50749;51.636;4.948;2023-07-20T06:14:25;101613.44;;;21.30;53.70
59190;BME280;50749;51.636;4.948;2023-07-20T06:16:51;101614.59;;;21.29;54.09
59190;BME280;50749;51.636;4.948;2023-07-20T06:19:17;101611.44;;;21.31;54.04
59190;BME280;50749;51.636;4.948;2023-07-20T06:21:43;101611.81;;;21.29;54.32
59190;BME280;50749;51.636;4.948;2023-07-20T06:24:09;101614.94;;;21.28;53.97
59190;BME280;50749;51.636;4.948;2023-07-20T06:26:35;101623.66;;;21.26;53.74
59190;BME280;50749;51.636;4.948;2023-07-20T06:29:05;101624.00;;;21.25;54.11
59190;BME280;50749;51.636;4.948;2023-07-20T06:31:32;101616.06;;;21.23;54.28
59190;BME280;50749;51.636;4.948;2023-07-20T06:33:58;101624.75;;;21.22;53.99
59190;BME280;50749;51.636;4.948;2023-07-20T06:36:24;101625.63;;;21.26;54.31
59190;BME280;50749;51.636;4.948;2023-07-20T06:38:52;101622.50;;;21.27;54.03
59190;BME280;50749;51.636;4.948;2023-07-20T06:41:18;101620.22;;;21.33;54.34
59190;BME280;50749;51.636;4.948;2023-07-20T06:43:45;101615.63;;;21.41;53.74
59190;BME280;50749;51.636;4.948;2023-07-20T06:46:10;101621.72;;;21.46;53.88
59190;BME280;50749;51.636;4.948;2023-07-20T06:48:36;101613.94;;;21.52;53.52
59190;BME280;50749;51.636;4.948;2023-07-20T06:51:02;101615.25;;;21.58;53.24
59190;BME280;50749;51.636;4.948;2023-07-20T06:53:29;101611.00;;;21.64;53.09
59190;BME280;50749;51.636;4.948;2023-07-20T06:55:55;101616.28;;;21.69;53.11
59190;BME280;50749;51.636;4.948;2023-07-20T06:58:25;101613.94;;;21.71;53.16
59190;BME280;50749;51.636;4.948;2023-07-20T07:00:51;101613.22;;;21.75;52.36
59190;BME280;50749;51.636;4.948;2023-07-20T07:03:17;101613.22;;;21.75;51.97
59190;BME280;50749;51.636;4.948;2023-07-20T07:05:43;101620.03;;;21.77;52.08
59190;BME280;50749;51.636;4.948;2023-07-20T07:08:10;101618.41;;;21.76;51.93
59190;BME280;50749;51.636;4.948;2023-07-20T07:10:36;101617.25;;;21.77;51.38
59190;BME280;50749;51.636;4.948;2023-07-20T07:13:03;101616.88;;;21.79;51.53
59190;BME280;50749;51.636;4.948;2023-07-20T07:15:29;101619.66;;;21.79;51.39
59190;BME280;50749;51.636;4.948;2023-07-20T07:17:55;101624.84;;;21.80;51.41
59190;BME280;50749;51.636;4.948;2023-07-20T07:20:22;101620.91;;;21.81;51.63
59190;BME280;50749;51.636;4.948;2023-07-20T07:22:50;101620.91;;;21.81;51.46
59190;BME280;50749;51.636;4.948;2023-07-20T07:25:16;101620.91;;;21.81;51.22
59190;BME280;50749;51.636;4.948;2023-07-20T07:27:42;101626.03;;;21.79;50.81
59190;BME280;50749;51.636;4.948;2023-07-20T07:30:08;101628.03;;;21.79;50.94
59190;BME280;50749;51.636;4.948;2023-07-20T07:32:34;101628.38;;;21.77;50.63
59190;BME280;50749;51.636;4.948;2023-07-20T07:34:59;101626.75;;;21.76;50.07
59190;BME280;50749;51.636;4.948;2023-07-20T07:37:26;101627.56;;;21.77;50.41
59190;BME280;50749;51.636;4.948;2023-07-20T07:39:51;101632.75;;;21.78;50.28
59190;BME280;50749;51.636;4.948;2023-07-20T07:42:17;101635.53;;;21.78;50.19
59190;BME280;50749;51.636;4.948;2023-07-20T07:44:44;101635.53;;;21.78;50.71
59190;BME280;50749;51.636;4.948;2023-07-20T07:47:12;101637.53;;;21.78;50.17
59190;BME280;50749;51.636;4.948;2023-07-20T07:49:37;101639.94;;;21.79;50.32
59190;BME280;50749;51.636;4.948;2023-07-20T07:52:04;101645.16;;;21.81;49.94
59190;BME280;50749;51.636;4.948;2023-07-20T07:54:29;101646.66;;;21.78;49.72
59190;BME280;50749;51.636;4.948;2023-07-20T07:56:56;101647.88;;;21.77;49.65
59190;BME280;50749;51.636;4.948;2023-07-20T07:59:21;101645.16;;;21.81;49.54
59190;BME280;50749;51.636;4.948;2023-07-20T08:01:48;101650.78;;;21.84;49.48
59190;BME280;50749;51.636;4.948;2023-07-20T08:04:14;101644.50;;;21.87;50.01
59190;BME280;50749;51.636;4.948;2023-07-20T08:06:40;101643.78;;;21.91;49.83
59190;BME280;50749;51.636;4.948;2023-07-20T08:09:05;101638.19;;;21.91;50.26
59190;BME280;50749;51.636;4.948;2023-07-20T08:11:32;101651.81;;;21.96;50.14
59190;BME280;50749;51.636;4.948;2023-07-20T08:14:02;101647.84;;;21.97;50.10
59190;BME280;50749;51.636;4.948;2023-07-20T08:16:28;101646.31;;;21.99;50.26
59190;BME280;50749;51.636;4.948;2023-07-20T08:18:54;101648.88;;;22.08;50.14
59190;BME280;50749;51.636;4.948;2023-07-20T08:21:20;101651.38;;;22.13;49.78
59190;BME280;50749;51.636;4.948;2023-07-20T08:23:45;101645.44;;;22.15;50.10
59190;BME280;50749;51.636;4.948;2023-07-20T08:26:11;101654.56;;;22.15;49.88
59190;BME280;50749;51.636;4.948;2023-07-20T08:28:37;101645.06;;;22.16;49.67
59190;BME280;50749;51.636;4.948;2023-07-20T08:31:05;101645.50;;;22.18;49.82
59190;BME280;50749;51.636;4.948;2023-07-20T08:33:31;101647.47;;;22.18;49.54
59190;BME280;50749;51.636;4.948;2023-07-20T08:36:00;101649.91;;;22.19;49.71
59190;BME280;50749;51.636;4.948;2023-07-20T08:38:27;101653.13;;;22.21;49.39
59190;BME280;50749;51.636;4.948;2023-07-20T08:40:53;101647.53;;;22.21;50.04
59190;BME280;50749;51.636;4.948;2023-07-20T08:43:22;101651.94;;;22.22;50.14
59190;BME280;50749;51.636;4.948;2023-07-20T08:45:54;101645.50;;;22.18;50.01
59190;BME280;50749;51.636;4.948;2023-07-20T08:48:21;101642.22;;;22.13;49.86
59190;BME280;50749;51.636;4.948;2023-07-20T08:50:49;101645.72;;;22.10;49.84
59190;BME280;50749;51.636;4.948;2023-07-20T08:53:16;101638.09;;;22.06;49.87
59190;BME280;50749;51.636;4.948;2023-07-20T08:55:44;101643.25;;;22.04;49.81
59190;BME280;50749;51.636;4.948;2023-07-20T08:58:12;101643.91;;;21.98;49.60
59190;BME280;50749;51.636;4.948;2023-07-20T09:00:38;101639.06;;;21.95;48.96
59190;BME280;50749;51.636;4.948;2023-07-20T09:03:04;101640.59;;;21.92;49.23
59190;BME280;50749;51.636;4.948;2023-07-20T09:05:30;101638.56;;;21.89;49.29
59190;BME280;50749;51.636;4.948;2023-07-20T09:07:56;101629.84;;;21.91;49.68
59190;BME280;50749;51.636;4.948;2023-07-20T09:10:23;101637.06;;;21.95;49.23
59190;BME280;50749;51.636;4.948;2023-07-20T09:12:49;101635.56;;;21.98;49.42
59190;BME280;50749;51.636;4.948;2023-07-20T09:15:15;101638.78;;;22.00;49.38
59190;BME280;50749;51.636;4.948;2023-07-20T09:17:46;101629.19;;;21.97;49.35
59190;BME280;50749;51.636;4.948;2023-07-20T09:20:14;101632.84;;;22.01;49.31
59190;BME280;50749;51.636;4.948;2023-07-20T09:22:40;101631.28;;;22.04;49.78
59190;BME280;50749;51.636;4.948;2023-07-20T09:25:13;101627.34;;;22.05;49.88
59190;BME280;50749;51.636;4.948;2023-07-20T09:27:41;101626.97;;;22.06;50.08
59190;BME280;50749;51.636;4.948;2023-07-20T09:30:08;101628.13;;;22.05;49.95
59190;BME280;50749;51.636;4.948;2023-07-20T09:32:43;101629.69;;;22.03;49.07
59190;BME280;50749;51.636;4.948;2023-07-20T09:35:16;101624.06;;;21.99;48.86
59190;BME280;50749;51.636;4.948;2023-07-20T09:37:58;101625.56;;;21.97;48.18
59190;BME280;50749;51.636;4.948;2023-07-20T09:40:25;101620.00;;;21.97;48.15
59190;BME280;50749;51.636;4.948;2023-07-20T09:42:55;101618.41;;;21.96;48.13
59190;BME280;50749;51.636;4.948;2023-07-20T09:45:44;101617.59;;;21.95;48.50
59190;BME280;50749;51.636;4.948;2023-07-20T09:48:10;101627.56;;;21.96;48.45
59190;BME280;50749;51.636;4.948;2023-07-20T09:50:48;101616.88;;;21.98;48.98
59190;BME280;50749;51.636;4.948;2023-07-20T09:53:14;101623.22;;;21.99;48.75
59190;BME280;50749;51.636;4.948;2023-07-20T09:55:47;101624.06;;;21.99;49.20
59190;BME280;50749;51.636;4.948;2023-07-20T09:58:14;101617.66;;;21.99;49.52
59190;BME280;50749;51.636;4.948;2023-07-20T10:00:41;101624.06;;;21.99;49.23
59190;BME280;50749;51.636;4.948;2023-07-20T10:03:14;101619.34;;;22.03;49.10
59190;BME280;50749;51.636;4.948;2023-07-20T10:06:07;101613.84;;;22.07;48.54
59190;BME280;50749;51.636;4.948;2023-07-20T10:08:38;101612.25;;;22.06;48.57
59190;BME280;50749;51.636;4.948;2023-07-20T10:11:08;101614.66;;;22.07;48.84
59190;BME280;50749;51.636;4.948;2023-07-20T10:13:37;101620.31;;;22.11;48.96
59190;BME280;50749;51.636;4.948;2023-07-20T10:16:10;101613.25;;;22.17;48.71
59190;BME280;50749;51.636;4.948;2023-07-20T10:21:03;101612.94;;;22.22;48.62
59190;BME280;50749;51.636;4.948;2023-07-20T10:23:33;101614.56;;;22.23;48.84
59190;BME280;50749;51.636;4.948;2023-07-20T10:26:01;101619.84;;;22.29;48.71
59190;BME280;50749;51.636;4.948;2023-07-20T10:28:27;101611.19;;;22.34;48.87
59190;BME280;50749;51.636;4.948;2023-07-20T10:30:53;101607.31;;;22.38;48.79
59190;BME280;50749;51.636;4.948;2023-07-20T10:33:19;101611.78;;;22.43;48.36
59190;BME280;50749;51.636;4.948;2023-07-20T10:35:56;101603.09;;;22.48;48.08
59190;BME280;50749;51.636;4.948;2023-07-20T10:43:47;101604.78;;;22.53;47.94
59190;BME280;50749;51.636;4.948;2023-07-20T10:46:14;101606.00;;;22.55;48.20
59190;BME280;50749;51.636;4.948;2023-07-20T10:48:58;101601.16;;;22.52;48.29
59190;BME280;50749;51.636;4.948;2023-07-20T10:51:25;101595.59;;;22.52;47.98
59190;BME280;50749;51.636;4.948;2023-07-20T10:53:50;101595.19;;;22.50;47.74
59190;BME280;50749;51.636;4.948;2023-07-20T10:56:22;101589.91;;;22.45;48.19
59190;BME280;50749;51.636;4.948;2023-07-20T10:58:48;101593.44;;;22.42;47.79
59190;BME280;50749;51.636;4.948;2023-07-20T11:01:17;101593.38;;;22.38;48.13
59190;BME280;50749;51.636;4.948;2023-07-20T11:03:48;101588.19;;;22.37;47.82
59190;BME280;50749;51.636;4.948;2023-07-20T11:06:29;101580.91;;;22.32;47.47
59190;BME280;50749;51.636;4.948;2023-07-20T11:09:05;101593.25;;;22.31;47.94
59190;BME280;50749;51.636;4.948;2023-07-20T11:11:34;101593.16;;;22.27;48.00
59190;BME280;50749;51.636;4.948;2023-07-20T11:14:24;101591.13;;;22.24;47.99
59190;BME280;50749;51.636;4.948;2023-07-20T11:16:52;101584.81;;;22.27;48.52
59190;BME280;50749;51.636;4.948;2023-07-20T11:19:25;101580.41;;;22.26;48.19
59190;BME280;50749;51.636;4.948;2023-07-20T11:24:17;101570.16;;;22.31;48.38
59190;BME280;50749;51.636;4.948;2023-07-20T11:26:48;101568.63;;;22.33;48.72
59190;BME280;50749;51.636;4.948;2023-07-20T11:29:15;101571.47;;;22.37;48.50
59190;BME280;50749;51.636;4.948;2023-07-20T11:31:43;101580.25;;;22.39;48.46
59190;BME280;50749;51.636;4.948;2023-07-20T11:34:19;101578.34;;;22.43;48.51
59190;BME280;50749;51.636;4.948;2023-07-20T11:36:46;101567.63;;;22.45;48.74
59190;BME280;50749;51.636;4.948;2023-07-20T11:39:21;101566.88;;;22.48;48.61
59190;BME280;50749;51.636;4.948;2023-07-20T11:41:55;101572.09;;;22.50;48.53
59190;BME280;50749;51.636;4.948;2023-07-20T11:44:23;101566.16;;;22.51;48.21
59190;BME280;50749;51.636;4.948;2023-07-20T11:47:08;101558.22;;;22.53;48.31
59190;BME280;50749;51.636;4.948;2023-07-20T11:49:41;101558.63;;;22.55;48.26
59190;BME280;50749;51.636;4.948;2023-07-20T11:52:09;101569.03;;;22.58;48.47
59190;BME280;50749;51.636;4.948;2023-07-20T11:54:39;101562.22;;;22.56;47.91
59190;BME280;50749;51.636;4.948;2023-07-20T11:57:05;101569.34;;;22.53;47.82
59190;BME280;50749;51.636;4.948;2023-07-20T11:59:32;101557.34;;;22.49;47.29
59190;BME280;50749;51.636;4.948;2023-07-20T12:02:01;101558.00;;;22.42;47.50
59190;BME280;50749;51.636;4.948;2023-07-20T12:04:29;101552.38;;;22.39;47.30
59190;BME280;50749;51.636;4.948;2023-07-20T12:06:56;101555.91;;;22.36;47.68
59190;BME280;50749;51.636;4.948;2023-07-20T12:09:22;101557.91;;;22.35;47.65
59190;BME280;50749;51.636;4.948;2023-07-20T12:11:49;101552.34;;;22.35;47.84
59190;BME280;50749;51.636;4.948;2023-07-20T12:14:17;101549.13;;;22.33;47.63
59190;BME280;50749;51.636;4.948;2023-07-20T12:16:44;101553.91;;;22.33;48.01
59190;BME280;50749;51.636;4.948;2023-07-20T12:19:17;101556.22;;;22.31;47.57
59190;BME280;50749;51.636;4.948;2023-07-20T12:21:43;101558.22;;;22.30;47.71
59190;BME280;50749;51.636;4.948;2023-07-20T12:24:10;101554.63;;;22.30;48.08
59190;BME280;50749;51.636;4.948;2023-07-20T12:26:36;101554.16;;;22.27;47.95
59190;BME280;50749;51.636;4.948;2023-07-20T12:29:02;101554.63;;;22.30;48.17
59190;BME280;50749;51.636;4.948;2023-07-20T12:31:36;101553.81;;;22.29;47.87
59190;BME280;50749;51.636;4.948;2023-07-20T12:34:02;101553.34;;;22.27;48.29
59190;BME280;50749;51.636;4.948;2023-07-20T12:36:27;101556.13;;;22.27;48.14
59190;BME280;50749;51.636;4.948;2023-07-20T12:38:53;101551.75;;;22.26;48.11
59190;BME280;50749;51.636;4.948;2023-07-20T12:41:19;101554.44;;;22.22;48.50
59190;BME280;50749;51.636;4.948;2023-07-20T12:43:45;101560.03;;;22.22;48.08
59190;BME280;50749;51.636;4.948;2023-07-20T12:46:12;101557.63;;;22.21;48.37
59190;BME280;50749;51.636;4.948;2023-07-20T12:48:38;101549.34;;;22.24;47.97
59190;BME280;50749;51.636;4.948;2023-07-20T12:51:06;101552.22;;;22.28;47.72
59190;BME280;50749;51.636;4.948;2023-07-20T12:53:33;101548.59;;;22.27;47.88
59190;BME280;50749;51.636;4.948;2023-07-20T12:56:00;101539.38;;;22.23;47.83
59190;BME280;50749;51.636;4.948;2023-07-20T12:58:25;101543.31;;;22.22;47.75
59190;BME280;50749;51.636;4.948;2023-07-20T13:00:52;101545.31;;;22.22;47.75
59190;BME280;50749;51.636;4.948;2023-07-20T13:03:17;101537.75;;;22.22;47.94
59190;BME280;50749;51.636;4.948;2023-07-20T13:05:48;101532.19;;;22.22;47.80
59190;BME280;50749;51.636;4.948;2023-07-20T13:08:14;101529.84;;;22.24;48.13
59190;BME280;50749;51.636;4.948;2023-07-20T13:10:41;101524.28;;;22.24;47.85
59190;BME280;50749;51.636;4.948;2023-07-20T13:13:07;101529.84;;;22.24;48.26